sensor_id;sensor_type;location;lat;lon;timestamp;temperature;humidity
75769;DHT22;64379;48.888;8.330;2023-12-20T00:00:36;5.30;87.30
75769;DHT22;64379;48.888;8.330;2023-12-20T00:03:03;5.30;87.50
75769;DHT22;64379;48.888;8.330;2023-12-20T00:05:29;5.30;87.70
75769;DHT22;64379;48.888;8.330;2023-12-20T00:07:57;5.30;87.90
75769;DHT22;64379;48.888;8.330;2023-12-20T00:10:23;5.30;88.10
75769;DHT22;64379;48.888;8.330;2023-12-20T00:12:48;5.20;88.30
75769;DHT22;64379;48.888;8.330;2023-12-20T00:15:14;5.20;88.40
75769;DHT22;64379;48.888;8.330;2023-12-20T00:17:39;5.20;88.60
75769;DHT22;64379;48.888;8.330;2023-12-20T00:20:06;5.20;88.70
75769;DHT22;64379;48.888;8.330;2023-12-20T00:22:32;5.10;88.80
75769;DHT22;64379;48.888;8.330;2023-12-20T00:24:57;5.10;89.00
75769;DHT22;64379;48.888;8.330;2023-12-20T00:27:23;5.10;89.00
75769;DHT22;64379;48.888;8.330;2023-12-20T00:29:48;5.10;89.10
75769;DHT22;64379;48.888;8.330;2023-12-20T00:32:15;5.10;89.20
75769;DHT22;64379;48.888;8.330;2023-12-20T00:34:41;5.10;89.30
75769;DHT22;64379;48.888;8.330;2023-12-20T00:37:07;5.10;89.40
75769;DHT22;64379;48.888;8.330;2023-12-20T00:39:32;5.10;89.40
75769;DHT22;64379;48.888;8.330;2023-12-20T00:41:58;5.10;89.50
75769;DHT22;64379;48.888;8.330;2023-12-20T00:44:24;5.10;89.50
75769;DHT22;64379;48.888;8.330;2023-12-20T00:46:49;5.10;89.50
75769;DHT22;64379;48.888;8.330;2023-12-20T00:49:15;5.10;89.60
75769;DHT22;64379;48.888;8.330;2023-12-20T00:51:40;5.10;89.50
75769;DHT22;64379;48.888;8.330;2023-12-20T00:54:06;5.10;89.60
75769;DHT22;64379;48.888;8.330;2023-12-20T00:56:32;5.10;89.60
75769;DHT22;64379;48.888;8.330;2023-12-20T00:58:57;5.20;89.70
75769;DHT22;64379;48.888;8.330;2023-12-20T01:01:23;5.20;89.70
75769;DHT22;64379;48.888;8.330;2023-12-20T01:03:48;5.20;89.70
75769;DHT22;64379;48.888;8.330;2023-12-20T01:06:16;5.20;89.90
75769;DHT22;64379;48.888;8.330;2023-12-20T01:08:42;5.10;90.00
75769;DHT22;64379;48.888;8.330;2023-12-20T01:11:07;5.20;90.10
75769;DHT22;64379;48.888;8.330;2023-12-20T01:13:33;5.20;90.20
75769;DHT22;64379;48.888;8.330;2023-12-20T01:15:59;5.20;90.20
75769;DHT22;64379;48.888;8.330;2023-12-20T01:18:24;5.10;90.30
75769;DHT22;64379;48.888;8.330;2023-12-20T01:20:50;5.20;90.30
75769;DHT22;64379;48.888;8.330;2023-12-20T01:23:16;5.20;90.40
75769;DHT22;64379;48.888;8.330;2023-12-20T01:25:41;5.20;90.40
75769;DHT22;64379;48.888;8.330;2023-12-20T01:28:07;5.30;90.40
75769;DHT22;64379;48.888;8.330;2023-12-20T01:30:32;5.30;90.40
75769;DHT22;64379;48.888;8.330;2023-12-20T01:33:00;5.30;90.30
75769;DHT22;64379;48.888;8.330;2023-12-20T01:35:26;5.30;90.20
75769;DHT22;64379;48.888;8.330;2023-12-20T01:37:52;5.30;90.10
75769;DHT22;64379;48.888;8.330;2023-12-20T01:40:22;5.30;90.00
75769;DHT22;64379;48.888;8.330;2023-12-20T01:42:47;5.30;89.80
75769;DHT22;64379;48.888;8.330;2023-12-20T01:45:13;5.30;89.80
75769;DHT22;64379;48.888;8.330;2023-12-20T01:47:39;5.30;90.00
75769;DHT22;64379;48.888;8.330;2023-12-20T01:50:05;5.30;90.00
75769;DHT22;64379;48.888;8.330;2023-12-20T01:52:33;5.30;90.10
75769;DHT22;64379;48.888;8.330;2023-12-20T01:54:59;5.30;90.10
75769;DHT22;64379;48.888;8.330;2023-12-20T01:57:28;5.40;90.10
75769;DHT22;64379;48.888;8.330;2023-12-20T01:59:54;5.40;90.10
75769;DHT22;64379;48.888;8.330;2023-12-20T02:02:20;5.40;90.00
75769;DHT22;64379;48.888;8.330;2023-12-20T02:04:45;5.50;89.70
75769;DHT22;64379;48.888;8.330;2023-12-20T02:07:13;5.50;89.50
75769;DHT22;64379;48.888;8.330;2023-12-20T02:09:39;5.50;89.40
75769;DHT22;64379;48.888;8.330;2023-12-20T02:12:05;5.50;89.20
75769;DHT22;64379;48.888;8.330;2023-12-20T02:14:31;5.50;89.10
75769;DHT22;64379;48.888;8.330;2023-12-20T02:16:56;5.60;88.90
75769;DHT22;64379;48.888;8.330;2023-12-20T02:19:22;5.60;88.90
75769;DHT22;64379;48.888;8.330;2023-12-20T02:21:47;5.60;89.00
75769;DHT22;64379;48.888;8.330;2023-12-20T02:24:13;5.60;89.20
75769;DHT22;64379;48.888;8.330;2023-12-20T02:26:39;5.60;89.20
75769;DHT22;64379;48.888;8.330;2023-12-20T02:29:04;5.60;89.30
75769;DHT22;64379;48.888;8.330;2023-12-20T02:31:30;5.50;89.40
75769;DHT22;64379;48.888;8.330;2023-12-20T02:33:55;5.50;89.50
75769;DHT22;64379;48.888;8.330;2023-12-20T02:36:21;5.50;89.60
75769;DHT22;64379;48.888;8.330;2023-12-20T02:38:46;5.50;89.60
75769;DHT22;64379;48.888;8.330;2023-12-20T02:41:12;5.50;89.70
75769;DHT22;64379;48.888;8.330;2023-12-20T02:43:38;5.60;89.60
75769;DHT22;64379;48.888;8.330;2023-12-20T02:46:03;5.50;89.60
75769;DHT22;64379;48.888;8.330;2023-12-20T02:48:29;5.60;89.80
75769;DHT22;64379;48.888;8.330;2023-12-20T02:50:54;5.50;89.90
75769;DHT22;64379;48.888;8.330;2023-12-20T02:53:20;5.50;90.00
75769;DHT22;64379;48.888;8.330;2023-12-20T02:55:46;5.50;90.10
75769;DHT22;64379;48.888;8.330;2023-12-20T02:58:11;5.50;90.10
75769;DHT22;64379;48.888;8.330;2023-12-20T03:00:37;5.50;90.10
75769;DHT22;64379;48.888;8.330;2023-12-20T03:03:02;5.50;90.20
75769;DHT22;64379;48.888;8.330;2023-12-20T03:05:28;5.50;90.20
75769;DHT22;64379;48.888;8.330;2023-12-20T03:07:54;5.50;90.20
75769;DHT22;64379;48.888;8.330;2023-12-20T03:10:19;5.60;90.10
75769;DHT22;64379;48.888;8.330;2023-12-20T03:12:45;5.60;90.00
75769;DHT22;64379;48.888;8.330;2023-12-20T03:15:10;5.60;90.00
75769;DHT22;64379;48.888;8.330;2023-12-20T03:17:36;5.60;90.00
75769;DHT22;64379;48.888;8.330;2023-12-20T03:20:02;5.60;90.00
75769;DHT22;64379;48.888;8.330;2023-12-20T03:22:28;5.50;90.20
75769;DHT22;64379;48.888;8.330;2023-12-20T03:24:53;5.50;90.10
75769;DHT22;64379;48.888;8.330;2023-12-20T03:27:19;5.50;90.20
75769;DHT22;64379;48.888;8.330;2023-12-20T03:29:44;5.50;90.30
75769;DHT22;64379;48.888;8.330;2023-12-20T03:32:10;5.50;90.40
75769;DHT22;64379;48.888;8.330;2023-12-20T03:34:35;5.50;90.40
75769;DHT22;64379;48.888;8.330;2023-12-20T03:37:01;5.50;90.40
75769;DHT22;64379;48.888;8.330;2023-12-20T03:39:27;5.50;90.40
75769;DHT22;64379;48.888;8.330;2023-12-20T03:41:52;5.50;90.40
75769;DHT22;64379;48.888;8.330;2023-12-20T03:44:18;5.50;90.40
75769;DHT22;64379;48.888;8.330;2023-12-20T03:46:43;5.50;90.40
75769;DHT22;64379;48.888;8.330;2023-12-20T03:49:11;5.50;90.30
75769;DHT22;64379;48.888;8.330;2023-12-20T03:51:36;5.60;90.20
75769;DHT22;64379;48.888;8.330;2023-12-20T03:54:02;5.50;90.20
75769;DHT22;64379;48.888;8.330;2023-12-20T03:56:28;5.60;90.10
75769;DHT22;64379;48.888;8.330;2023-12-20T03:58:54;5.60;90.10
75769;DHT22;64379;48.888;8.330;2023-12-20T04:01:19;5.60;90.00
75769;DHT22;64379;48.888;8.330;2023-12-20T04:03:45;5.60;90.00
75769;DHT22;64379;48.888;8.330;2023-12-20T04:06:16;5.60;90.00
75769;DHT22;64379;48.888;8.330;2023-12-20T04:08:42;5.60;89.90
75769;DHT22;64379;48.888;8.330;2023-12-20T04:11:07;5.70;89.70
75769;DHT22;64379;48.888;8.330;2023-12-20T04:13:33;5.70;89.50
75769;DHT22;64379;48.888;8.330;2023-12-20T04:15:59;5.70;89.50
75769;DHT22;64379;48.888;8.330;2023-12-20T04:18:24;5.70;89.40
75769;DHT22;64379;48.888;8.330;2023-12-20T04:20:50;5.80;89.20
75769;DHT22;64379;48.888;8.330;2023-12-20T04:23:17;5.80;89.10
75769;DHT22;64379;48.888;8.330;2023-12-20T04:25:42;5.80;89.10
75769;DHT22;64379;48.888;8.330;2023-12-20T04:28:08;5.80;89.20
75769;DHT22;64379;48.888;8.330;2023-12-20T04:30:33;5.80;89.20
75769;DHT22;64379;48.888;8.330;2023-12-20T04:32:59;5.80;89.20
75769;DHT22;64379;48.888;8.330;2023-12-20T04:35:24;5.80;89.00
75769;DHT22;64379;48.888;8.330;2023-12-20T04:37:50;5.80;88.90
75769;DHT22;64379;48.888;8.330;2023-12-20T04:40:16;5.80;88.90
75769;DHT22;64379;48.888;8.330;2023-12-20T04:42:41;5.80;88.90
75769;DHT22;64379;48.888;8.330;2023-12-20T04:45:07;5.80;88.90
75769;DHT22;64379;48.888;8.330;2023-12-20T04:47:33;5.80;88.90
75769;DHT22;64379;48.888;8.330;2023-12-20T04:49:58;5.80;88.90
75769;DHT22;64379;48.888;8.330;2023-12-20T04:52:24;5.80;88.80
75769;DHT22;64379;48.888;8.330;2023-12-20T04:54:50;5.80;88.80
75769;DHT22;64379;48.888;8.330;2023-12-20T04:57:16;5.90;88.60
75769;DHT22;64379;48.888;8.330;2023-12-20T04:59:41;5.90;88.50
75769;DHT22;64379;48.888;8.330;2023-12-20T05:02:07;5.90;88.60
75769;DHT22;64379;48.888;8.330;2023-12-20T05:04:32;5.90;88.70
75769;DHT22;64379;48.888;8.330;2023-12-20T05:06:58;5.80;88.70
75769;DHT22;64379;48.888;8.330;2023-12-20T05:09:23;5.80;88.90
75769;DHT22;64379;48.888;8.330;2023-12-20T05:11:49;5.80;88.90
75769;DHT22;64379;48.888;8.330;2023-12-20T05:14:15;5.80;88.90
75769;DHT22;64379;48.888;8.330;2023-12-20T05:16:40;5.80;88.90
75769;DHT22;64379;48.888;8.330;2023-12-20T05:19:06;5.80;89.00
75769;DHT22;64379;48.888;8.330;2023-12-20T05:21:32;5.80;88.90
75769;DHT22;64379;48.888;8.330;2023-12-20T05:23:58;5.80;88.80
75769;DHT22;64379;48.888;8.330;2023-12-20T05:26:24;5.80;88.80
75769;DHT22;64379;48.888;8.330;2023-12-20T05:28:49;5.80;88.80
75769;DHT22;64379;48.888;8.330;2023-12-20T05:31:15;5.80;88.90
75769;DHT22;64379;48.888;8.330;2023-12-20T05:33:41;5.80;89.00
75769;DHT22;64379;48.888;8.330;2023-12-20T05:36:06;5.80;88.90
75769;DHT22;64379;48.888;8.330;2023-12-20T05:38:36;5.80;88.80
75769;DHT22;64379;48.888;8.330;2023-12-20T05:41:02;5.80;88.90
75769;DHT22;64379;48.888;8.330;2023-12-20T05:43:28;5.80;88.90
75769;DHT22;64379;48.888;8.330;2023-12-20T05:45:53;5.80;88.90
75769;DHT22;64379;48.888;8.330;2023-12-20T05:48:19;5.80;89.00
75769;DHT22;64379;48.888;8.330;2023-12-20T05:50:44;5.80;89.10
75769;DHT22;64379;48.888;8.330;2023-12-20T05:53:10;5.80;89.20
75769;DHT22;64379;48.888;8.330;2023-12-20T05:55:35;5.80;89.20
75769;DHT22;64379;48.888;8.330;2023-12-20T05:58:01;5.80;89.10
75769;DHT22;64379;48.888;8.330;2023-12-20T06:00:27;5.80;89.00
75769;DHT22;64379;48.888;8.330;2023-12-20T06:02:52;5.80;89.10
75769;DHT22;64379;48.888;8.330;2023-12-20T06:05:18;5.80;89.10
75769;DHT22;64379;48.888;8.330;2023-12-20T06:07:43;5.80;89.20
75769;DHT22;64379;48.888;8.330;2023-12-20T06:10:10;5.80;89.20
75769;DHT22;64379;48.888;8.330;2023-12-20T06:12:35;5.80;89.30
75769;DHT22;64379;48.888;8.330;2023-12-20T06:15:02;5.80;89.30
75769;DHT22;64379;48.888;8.330;2023-12-20T06:17:28;5.80;89.40
75769;DHT22;64379;48.888;8.330;2023-12-20T06:19:56;5.80;89.30
75769;DHT22;64379;48.888;8.330;2023-12-20T06:22:21;5.80;89.20
75769;DHT22;64379;48.888;8.330;2023-12-20T06:24:47;5.80;89.20
75769;DHT22;64379;48.888;8.330;2023-12-20T06:27:12;5.80;89.20
75769;DHT22;64379;48.888;8.330;2023-12-20T06:29:38;5.80;89.10
75769;DHT22;64379;48.888;8.330;2023-12-20T06:32:04;5.80;89.00
75769;DHT22;64379;48.888;8.330;2023-12-20T06:34:30;5.80;88.80
75769;DHT22;64379;48.888;8.330;2023-12-20T06:36:55;5.80;88.70
75769;DHT22;64379;48.888;8.330;2023-12-20T06:39:21;5.80;88.70
75769;DHT22;64379;48.888;8.330;2023-12-20T06:41:46;5.80;88.70
75769;DHT22;64379;48.888;8.330;2023-12-20T06:44:12;5.80;88.70
75769;DHT22;64379;48.888;8.330;2023-12-20T06:46:37;5.80;88.70
75769;DHT22;64379;48.888;8.330;2023-12-20T06:49:03;5.90;88.70
75769;DHT22;64379;48.888;8.330;2023-12-20T06:51:28;5.80;88.50
75769;DHT22;64379;48.888;8.330;2023-12-20T06:53:56;5.90;88.40
75769;DHT22;64379;48.888;8.330;2023-12-20T06:56:21;5.90;88.30
75769;DHT22;64379;48.888;8.330;2023-12-20T06:58:50;5.90;88.20
75769;DHT22;64379;48.888;8.330;2023-12-20T07:01:15;5.90;88.00
75769;DHT22;64379;48.888;8.330;2023-12-20T07:03:42;5.90;87.90
75769;DHT22;64379;48.888;8.330;2023-12-20T07:06:08;5.90;87.80
75769;DHT22;64379;48.888;8.330;2023-12-20T07:08:34;5.90;87.60
75769;DHT22;64379;48.888;8.330;2023-12-20T07:10:59;5.90;87.50
75769;DHT22;64379;48.888;8.330;2023-12-20T07:13:25;5.90;87.20
75769;DHT22;64379;48.888;8.330;2023-12-20T07:15:50;5.90;87.30
75769;DHT22;64379;48.888;8.330;2023-12-20T07:18:16;5.90;87.40
75769;DHT22;64379;48.888;8.330;2023-12-20T07:20:42;5.90;87.40
75769;DHT22;64379;48.888;8.330;2023-12-20T07:23:08;5.70;87.50
75769;DHT22;64379;48.888;8.330;2023-12-20T07:25:34;5.70;87.80
75769;DHT22;64379;48.888;8.330;2023-12-20T07:27:59;5.60;88.00
75769;DHT22;64379;48.888;8.330;2023-12-20T07:30:25;5.60;88.20
75769;DHT22;64379;48.888;8.330;2023-12-20T07:32:51;5.50;88.40
75769;DHT22;64379;48.888;8.330;2023-12-20T07:35:17;5.50;88.50
75769;DHT22;64379;48.888;8.330;2023-12-20T07:37:43;5.30;88.60
75769;DHT22;64379;48.888;8.330;2023-12-20T07:40:09;5.30;88.80
75769;DHT22;64379;48.888;8.330;2023-12-20T07:42:35;5.20;89.00
75769;DHT22;64379;48.888;8.330;2023-12-20T07:45:01;5.20;89.10
75769;DHT22;64379;48.888;8.330;2023-12-20T07:47:26;5.10;89.20
75769;DHT22;64379;48.888;8.330;2023-12-20T07:49:52;5.10;89.20
75769;DHT22;64379;48.888;8.330;2023-12-20T07:52:18;5.10;89.30
75769;DHT22;64379;48.888;8.330;2023-12-20T07:54:44;5.00;89.30
75769;DHT22;64379;48.888;8.330;2023-12-20T07:57:10;5.00;89.20
75769;DHT22;64379;48.888;8.330;2023-12-20T07:59:36;5.00;89.00
75769;DHT22;64379;48.888;8.330;2023-12-20T08:02:02;5.00;89.00
75769;DHT22;64379;48.888;8.330;2023-12-20T08:04:27;5.00;88.70
75769;DHT22;64379;48.888;8.330;2023-12-20T08:06:53;4.90;88.60
75769;DHT22;64379;48.888;8.330;2023-12-20T08:09:19;4.90;88.50
75769;DHT22;64379;48.888;8.330;2023-12-20T08:11:48;4.90;88.20
75769;DHT22;64379;48.888;8.330;2023-12-20T08:14:14;5.00;88.20
75769;DHT22;64379;48.888;8.330;2023-12-20T08:16:40;4.90;88.10
75769;DHT22;64379;48.888;8.330;2023-12-20T08:19:05;4.90;87.90
75769;DHT22;64379;48.888;8.330;2023-12-20T08:21:31;5.00;87.60
75769;DHT22;64379;48.888;8.330;2023-12-20T08:23:56;5.00;87.20
75769;DHT22;64379;48.888;8.330;2023-12-20T08:26:22;5.00;86.70
75769;DHT22;64379;48.888;8.330;2023-12-20T08:28:49;5.00;86.50
75769;DHT22;64379;48.888;8.330;2023-12-20T08:31:16;5.00;86.40
75769;DHT22;64379;48.888;8.330;2023-12-20T08:33:46;5.00;86.40
75769;DHT22;64379;48.888;8.330;2023-12-20T08:36:15;5.00;86.40
75769;DHT22;64379;48.888;8.330;2023-12-20T08:38:43;5.10;86.20
75769;DHT22;64379;48.888;8.330;2023-12-20T08:41:08;5.10;86.00
75769;DHT22;64379;48.888;8.330;2023-12-20T08:43:34;5.10;85.90
75769;DHT22;64379;48.888;8.330;2023-12-20T08:46:01;5.10;85.80
75769;DHT22;64379;48.888;8.330;2023-12-20T08:48:26;5.10;85.50
75769;DHT22;64379;48.888;8.330;2023-12-20T08:50:52;5.10;85.20
75769;DHT22;64379;48.888;8.330;2023-12-20T08:53:18;5.30;84.70
75769;DHT22;64379;48.888;8.330;2023-12-20T08:55:45;5.30;83.90
75769;DHT22;64379;48.888;8.330;2023-12-20T08:58:11;5.50;83.00
75769;DHT22;64379;48.888;8.330;2023-12-20T09:00:36;5.60;82.30
75769;DHT22;64379;48.888;8.330;2023-12-20T09:03:02;5.70;81.90
75769;DHT22;64379;48.888;8.330;2023-12-20T09:05:28;5.80;81.40
75769;DHT22;64379;48.888;8.330;2023-12-20T09:07:54;5.80;81.60
75769;DHT22;64379;48.888;8.330;2023-12-20T09:10:19;5.80;81.50
75769;DHT22;64379;48.888;8.330;2023-12-20T09:12:53;5.90;81.50
75769;DHT22;64379;48.888;8.330;2023-12-20T09:15:26;5.90;81.00
75769;DHT22;64379;48.888;8.330;2023-12-20T09:17:52;5.90;81.00
75769;DHT22;64379;48.888;8.330;2023-12-20T09:20:18;6.00;80.10
75769;DHT22;64379;48.888;8.330;2023-12-20T09:22:43;6.00;79.50
75769;DHT22;64379;48.888;8.330;2023-12-20T09:25:12;6.00;79.90
75769;DHT22;64379;48.888;8.330;2023-12-20T09:27:39;6.00;79.70
75769;DHT22;64379;48.888;8.330;2023-12-20T09:30:05;6.00;79.40
75769;DHT22;64379;48.888;8.330;2023-12-20T09:32:31;6.00;78.50
75769;DHT22;64379;48.888;8.330;2023-12-20T09:34:56;6.10;78.50
75769;DHT22;64379;48.888;8.330;2023-12-20T09:37:25;6.10;78.30
75769;DHT22;64379;48.888;8.330;2023-12-20T09:39:51;6.10;78.20
75769;DHT22;64379;48.888;8.330;2023-12-20T09:43:08;6.10;78.60
75769;DHT22;64379;48.888;8.330;2023-12-20T09:45:09;6.10;78.40
75769;DHT22;64379;48.888;8.330;2023-12-20T09:47:35;6.10;78.50
75769;DHT22;64379;48.888;8.330;2023-12-20T09:50:02;6.10;78.00
75769;DHT22;64379;48.888;8.330;2023-12-20T09:52:28;6.10;78.20
75769;DHT22;64379;48.888;8.330;2023-12-20T09:54:55;6.20;78.10
75769;DHT22;64379;48.888;8.330;2023-12-20T09:57:24;6.20;78.00
75769;DHT22;64379;48.888;8.330;2023-12-20T09:59:50;6.20;77.80
75769;DHT22;64379;48.888;8.330;2023-12-20T10:02:18;6.10;78.00
75769;DHT22;64379;48.888;8.330;2023-12-20T10:04:47;6.10;77.90
75769;DHT22;64379;48.888;8.330;2023-12-20T10:07:13;6.10;78.20
75769;DHT22;64379;48.888;8.330;2023-12-20T10:09:39;6.10;77.90
75769;DHT22;64379;48.888;8.330;2023-12-20T10:12:05;6.20;77.90
75769;DHT22;64379;48.888;8.330;2023-12-20T10:14:32;6.20;78.80
75769;DHT22;64379;48.888;8.330;2023-12-20T10:17:05;6.30;78.20
75769;DHT22;64379;48.888;8.330;2023-12-20T10:19:31;6.30;77.90
75769;DHT22;64379;48.888;8.330;2023-12-20T10:22:01;6.30;78.00
75769;DHT22;64379;48.888;8.330;2023-12-20T10:24:29;6.30;77.40
75769;DHT22;64379;48.888;8.330;2023-12-20T10:27:03;6.30;77.70
75769;DHT22;64379;48.888;8.330;2023-12-20T10:29:37;6.30;77.60
75769;DHT22;64379;48.888;8.330;2023-12-20T10:32:25;6.30;77.40
75769;DHT22;64379;48.888;8.330;2023-12-20T10:34:52;6.20;78.00
75769;DHT22;64379;48.888;8.330;2023-12-20T10:37:18;6.30;77.60
75769;DHT22;64379;48.888;8.330;2023-12-20T10:39:44;6.30;76.60
75769;DHT22;64379;48.888;8.330;2023-12-20T10:42:11;6.30;76.60
75769;DHT22;64379;48.888;8.330;2023-12-20T10:44:37;6.30;75.70
75769;DHT22;64379;48.888;8.330;2023-12-20T10:47:04;6.30;75.90
75769;DHT22;64379;48.888;8.330;2023-12-20T10:49:31;6.30;76.00
75769;DHT22;64379;48.888;8.330;2023-12-20T10:51:57;6.40;76.40
75769;DHT22;64379;48.888;8.330;2023-12-20T10:54:25;6.40;75.20
75769;DHT22;64379;48.888;8.330;2023-12-20T10:56:52;6.40;75.00
75769;DHT22;64379;48.888;8.330;2023-12-20T10:59:19;6.50;74.60
75769;DHT22;64379;48.888;8.330;2023-12-20T11:01:47;6.50;74.80
75769;DHT22;64379;48.888;8.330;2023-12-20T11:04:18;6.50;74.20
75769;DHT22;64379;48.888;8.330;2023-12-20T11:06:51;6.60;74.50
75769;DHT22;64379;48.888;8.330;2023-12-20T11:09:28;6.70;74.40
75769;DHT22;64379;48.888;8.330;2023-12-20T11:14:46;6.70;74.30
75769;DHT22;64379;48.888;8.330;2023-12-20T11:17:12;6.70;74.30
75769;DHT22;64379;48.888;8.330;2023-12-20T11:22:35;6.70;74.80
75769;DHT22;64379;48.888;8.330;2023-12-20T11:27:30;6.80;73.10
75769;DHT22;64379;48.888;8.330;2023-12-20T11:29:57;6.70;73.10
75769;DHT22;64379;48.888;8.330;2023-12-20T11:37:35;6.70;71.80
75769;DHT22;64379;48.888;8.330;2023-12-20T11:40:06;6.70;72.30
75769;DHT22;64379;48.888;8.330;2023-12-20T11:42:39;6.80;72.40
75769;DHT22;64379;48.888;8.330;2023-12-20T11:45:08;6.80;72.30
75769;DHT22;64379;48.888;8.330;2023-12-20T11:47:34;6.80;71.30
75769;DHT22;64379;48.888;8.330;2023-12-20T11:50:00;6.70;71.50
75769;DHT22;64379;48.888;8.330;2023-12-20T11:52:29;6.50;72.70
75769;DHT22;64379;48.888;8.330;2023-12-20T11:54:54;6.40;74.00
75769;DHT22;64379;48.888;8.330;2023-12-20T11:57:20;6.30;74.50
75769;DHT22;64379;48.888;8.330;2023-12-20T11:59:46;6.20;73.50
75769;DHT22;64379;48.888;8.330;2023-12-20T12:02:12;6.30;73.50
75769;DHT22;64379;48.888;8.330;2023-12-20T12:04:38;6.30;73.30
75769;DHT22;64379;48.888;8.330;2023-12-20T12:07:03;6.30;73.50
75769;DHT22;64379;48.888;8.330;2023-12-20T12:09:29;6.40;72.80
75769;DHT22;64379;48.888;8.330;2023-12-20T12:11:55;6.50;72.20
75769;DHT22;64379;48.888;8.330;2023-12-20T12:14:20;6.50;72.10
75769;DHT22;64379;48.888;8.330;2023-12-20T12:16:46;6.50;71.60
75769;DHT22;64379;48.888;8.330;2023-12-20T12:19:24;6.60;71.40
75769;DHT22;64379;48.888;8.330;2023-12-20T12:21:51;6.60;71.40
75769;DHT22;64379;48.888;8.330;2023-12-20T12:24:20;6.60;71.80
75769;DHT22;64379;48.888;8.330;2023-12-20T12:26:51;6.70;71.40
75769;DHT22;64379;48.888;8.330;2023-12-20T12:29:17;6.70;71.10
75769;DHT22;64379;48.888;8.330;2023-12-20T12:31:42;6.70;71.20
75769;DHT22;64379;48.888;8.330;2023-12-20T12:34:08;6.70;70.90
75769;DHT22;64379;48.888;8.330;2023-12-20T12:36:34;6.70;71.50
75769;DHT22;64379;48.888;8.330;2023-12-20T12:39:02;6.70;71.10
75769;DHT22;64379;48.888;8.330;2023-12-20T12:41:30;6.70;70.90
75769;DHT22;64379;48.888;8.330;2023-12-20T12:43:55;6.70;70.80
75769;DHT22;64379;48.888;8.330;2023-12-20T12:46:21;6.70;71.30
75769;DHT22;64379;48.888;8.330;2023-12-20T12:48:47;6.60;72.00
75769;DHT22;64379;48.888;8.330;2023-12-20T12:51:12;6.50;72.40
75769;DHT22;64379;48.888;8.330;2023-12-20T12:53:39;6.30;72.90
75769;DHT22;64379;48.888;8.330;2023-12-20T12:56:05;6.30;73.40
75769;DHT22;64379;48.888;8.330;2023-12-20T12:58:32;6.20;74.00
75769;DHT22;64379;48.888;8.330;2023-12-20T13:00:57;6.20;74.20
75769;DHT22;64379;48.888;8.330;2023-12-20T13:03:24;6.30;74.00
75769;DHT22;64379;48.888;8.330;2023-12-20T13:05:50;6.30;73.40
75769;DHT22;64379;48.888;8.330;2023-12-20T13:08:16;6.30;72.90
75769;DHT22;64379;48.888;8.330;2023-12-20T13:10:41;6.40;73.00
75769;DHT22;64379;48.888;8.330;2023-12-20T13:13:07;6.40;72.90
75769;DHT22;64379;48.888;8.330;2023-12-20T13:15:33;6.40;72.50
75769;DHT22;64379;48.888;8.330;2023-12-20T13:17:58;6.40;72.20
75769;DHT22;64379;48.888;8.330;2023-12-20T13:20:25;6.50;71.60
75769;DHT22;64379;48.888;8.330;2023-12-20T13:22:51;6.50;71.80
75769;DHT22;64379;48.888;8.330;2023-12-20T13:25:16;6.50;71.80
75769;DHT22;64379;48.888;8.330;2023-12-20T13:27:42;6.50;72.00
75769;DHT22;64379;48.888;8.330;2023-12-20T13:30:08;6.50;71.50
75769;DHT22;64379;48.888;8.330;2023-12-20T13:32:33;6.50;71.30
75769;DHT22;64379;48.888;8.330;2023-12-20T13:34:59;6.50;71.20
75769;DHT22;64379;48.888;8.330;2023-12-20T13:37:24;6.50;71.40
75769;DHT22;64379;48.888;8.330;2023-12-20T13:39:50;6.50;70.90
75769;DHT22;64379;48.888;8.330;2023-12-20T13:42:16;6.50;70.90
75769;DHT22;64379;48.888;8.330;2023-12-20T13:44:41;6.50;70.70
75769;DHT22;64379;48.888;8.330;2023-12-20T13:47:07;6.50;71.00
75769;DHT22;64379;48.888;8.330;2023-12-20T13:49:33;6.50;70.70
75769;DHT22;64379;48.888;8.330;2023-12-20T13:51:59;6.50;70.90
75769;DHT22;64379;48.888;8.330;2023-12-20T13:54:25;6.50;71.50
75769;DHT22;64379;48.888;8.330;2023-12-20T13:56:50;6.50;71.20
75769;DHT22;64379;48.888;8.330;2023-12-20T13:59:16;6.50;71.60
75769;DHT22;64379;48.888;8.330;2023-12-20T14:01:41;6.50;71.40
75769;DHT22;64379;48.888;8.330;2023-12-20T14:04:07;6.40;71.80
75769;DHT22;64379;48.888;8.330;2023-12-20T14:06:33;6.40;72.20
75769;DHT22;64379;48.888;8.330;2023-12-20T14:08:59;6.40;72.50
75769;DHT22;64379;48.888;8.330;2023-12-20T14:11:28;6.30;72.60
75769;DHT22;64379;48.888;8.330;2023-12-20T14:13:54;6.30;72.80
75769;DHT22;64379;48.888;8.330;2023-12-20T14:16:24;6.30;72.90
75769;DHT22;64379;48.888;8.330;2023-12-20T14:18:49;6.30;73.00
75769;DHT22;64379;48.888;8.330;2023-12-20T14:21:17;6.30;73.10
75769;DHT22;64379;48.888;8.330;2023-12-20T14:23:43;6.30;72.80
75769;DHT22;64379;48.888;8.330;2023-12-20T14:26:09;6.30;72.80
75769;DHT22;64379;48.888;8.330;2023-12-20T14:28:41;6.40;72.50
75769;DHT22;64379;48.888;8.330;2023-12-20T14:31:06;6.40;72.60
75769;DHT22;64379;48.888;8.330;2023-12-20T14:33:32;6.40;73.10
75769;DHT22;64379;48.888;8.330;2023-12-20T14:35:58;6.30;74.00
75769;DHT22;64379;48.888;8.330;2023-12-20T14:38:23;6.20;74.80
75769;DHT22;64379;48.888;8.330;2023-12-20T14:40:49;6.10;75.60
75769;DHT22;64379;48.888;8.330;2023-12-20T14:43:16;6.10;75.40
75769;DHT22;64379;48.888;8.330;2023-12-20T14:45:42;6.10;75.50
75769;DHT22;64379;48.888;8.330;2023-12-20T14:48:07;6.10;75.50
75769;DHT22;64379;48.888;8.330;2023-12-20T14:50:33;6.00;75.90
75769;DHT22;64379;48.888;8.330;2023-12-20T14:52:59;6.00;75.60
75769;DHT22;64379;48.888;8.330;2023-12-20T14:55:25;6.10;75.60
75769;DHT22;64379;48.888;8.330;2023-12-20T14:57:53;6.10;75.10
75769;DHT22;64379;48.888;8.330;2023-12-20T15:00:18;6.10;74.60
75769;DHT22;64379;48.888;8.330;2023-12-20T15:02:45;6.20;74.50
75769;DHT22;64379;48.888;8.330;2023-12-20T15:05:11;6.10;74.90
75769;DHT22;64379;48.888;8.330;2023-12-20T15:07:37;6.10;74.50
75769;DHT22;64379;48.888;8.330;2023-12-20T15:10:03;6.10;74.30
75769;DHT22;64379;48.888;8.330;2023-12-20T15:12:29;6.10;74.80
75769;DHT22;64379;48.888;8.330;2023-12-20T15:14:54;6.10;74.40
75769;DHT22;64379;48.888;8.330;2023-12-20T15:17:20;6.10;74.80
75769;DHT22;64379;48.888;8.330;2023-12-20T15:19:45;6.10;74.90
75769;DHT22;64379;48.888;8.330;2023-12-20T15:22:11;6.00;75.40
75769;DHT22;64379;48.888;8.330;2023-12-20T15:24:37;6.00;75.50
75769;DHT22;64379;48.888;8.330;2023-12-20T15:27:06;5.90;75.90
75769;DHT22;64379;48.888;8.330;2023-12-20T15:29:31;5.90;76.00
75769;DHT22;64379;48.888;8.330;2023-12-20T15:31:57;5.90;76.30
75769;DHT22;64379;48.888;8.330;2023-12-20T15:34:23;5.90;76.70
75769;DHT22;64379;48.888;8.330;2023-12-20T15:36:48;5.90;77.10
75769;DHT22;64379;48.888;8.330;2023-12-20T15:39:14;5.80;77.30
75769;DHT22;64379;48.888;8.330;2023-12-20T15:41:40;5.80;77.50
75769;DHT22;64379;48.888;8.330;2023-12-20T15:44:05;5.80;77.80
75769;DHT22;64379;48.888;8.330;2023-12-20T15:46:31;5.70;78.50
75769;DHT22;64379;48.888;8.330;2023-12-20T15:48:57;5.70;78.20
75769;DHT22;64379;48.888;8.330;2023-12-20T15:51:23;5.70;78.30